Аэропорт: Нариманово. Астрахань

ICAO: URWA

METAR:
2020-08-12 06:30:00
URWA 120630Z 33002MPS CAVOK 31/06 Q1010 R09/010070 NOSIG RMK QFE759/1012
METAR:
2020-08-12 05:00:00
TAF URWA 120500Z 1206/1215 28003G08MPS CAVOK TEMPO 1208/1215 32005G11MPS